Time;durP1;ratioP1;P1;durP2;ratioP2;P2;SDS_P1;SDS_P2;PMS_P1;PMS_P2;Temp;Humidity;BMP_temperature;BMP_pressure;BME280_temperature;BME280_humidity;BME280_pressure;Samples;Min_cycle;Max_cycle;Signal;HPM_P1;HPM_P2
2022/02/27 00:01:54;;;;;;;5.15;2.90;;;;;;;-0.03;86.42;102648.22;5063347;28;20080;-71
2022/02/27 00:04:19;;;;;;;3.88;2.83;;;;;;;-0.01;86.68;102656.88;5063453;28;20037;-70
2022/02/27 00:06:44;;;;;;;9.85;3.10;;;;;;;-0.06;86.79;102640.31;5045325;28;20075;-71
2022/02/27 00:09:10;;;;;;;9.23;2.90;;;;;;;-0.02;86.52;102661.88;5063564;28;20081;-70
2022/02/27 00:11:35;;;;;;;10.63;4.40;;;;;;;-0.04;86.36;102655.75;5045377;28;20025;-69
2022/02/27 00:14:00;;;;;;;5.40;2.85;;;;;;;-0.06;86.70;102659.84;5063382;28;20043;-70
2022/02/27 00:16:26;;;;;;;5.38;2.53;;;;;;;-0.06;86.92;102654.75;5063400;28;20025;-68
2022/02/27 00:18:51;;;;;;;5.55;2.83;;;;;;;-0.09;86.99;102641.75;5063322;28;20025;-71
2022/02/27 00:21:16;;;;;;;6.85;3.00;;;;;;;-0.04;87.03;102646.44;5063599;28;20017;-71
2022/02/27 00:23:42;;;;;;;9.65;2.92;;;;;;;-0.02;87.06;102651.66;5063156;28;20032;-70
2022/02/27 00:26:07;;;;;;;7.03;3.35;;;;;;;-0.05;87.14;102644.66;5063468;28;20021;-69
2022/02/27 00:28:34;;;;;;;9.07;2.60;;;;;;;0.02;87.15;102660.44;5063154;28;20484;-69
2022/02/27 00:30:59;;;;;;;6.05;2.85;;;;;;;0.02;87.11;102651.09;5063189;28;20020;-69
2022/02/27 00:33:24;;;;;;;9.38;2.83;;;;;;;0.04;87.26;102653.75;5063181;28;20029;-70
2022/02/27 00:35:50;;;;;;;12.32;3.72;;;;;;;0.02;87.23;102652.78;5062838;28;20055;-71
2022/02/27 00:38:15;;;;;;;7.30;2.67;;;;;;;0.09;87.36;102663.53;5062849;28;20052;-71
2022/02/27 00:40:40;;;;;;;9.02;3.25;;;;;;;0.09;87.04;102649.88;5063071;28;20100;-72
2022/02/27 00:43:06;;;;;;;6.20;2.80;;;;;;;0.02;86.79;102643.44;5063089;28;20033;-70
2022/02/27 00:45:31;;;;;;;12.10;3.90;;;;;;;-0.05;86.90;102646.34;5045206;28;20032;-70
2022/02/27 00:47:57;;;;;;;9.93;2.55;;;;;;;0.01;86.57;102653.53;5063069;28;20024;-70
2022/02/27 00:50:22;;;;;;;4.30;2.75;;;;;;;-0.13;86.43;102646.66;5064539;28;20457;-70
2022/02/27 00:52:48;;;;;;;6.95;3.30;;;;;;;-0.15;86.74;102658.44;5066390;28;20036;-71
2022/02/27 00:55:13;;;;;;;5.80;3.30;;;;;;;-0.12;86.79;102655.22;5066796;28;20084;-69
2022/02/27 00:57:38;;;;;;;13.90;3.85;;;;;;;-0.18;87.05;102664.97;5066707;28;20032;-70
2022/02/27 01:00:06;;;;;;;8.75;3.90;;;;;;;-0.19;87.31;102665.78;5066786;28;20369;-71
2022/02/27 01:02:31;;;;;;;6.97;2.95;;;;;;;-0.18;87.48;102670.09;5049251;28;20039;-71
2022/02/27 01:04:56;;;;;;;4.40;2.38;;;;;;;-0.16;87.59;102666.00;5066590;28;20104;-71
2022/02/27 01:07:22;;;;;;;9.13;3.92;;;;;;;-0.15;87.48;102663.56;5066080;28;20055;-70
2022/02/27 01:09:47;;;;;;;8.55;3.38;;;;;;;-0.12;87.76;102673.09;5066449;28;20021;-70
2022/02/27 01:12:12;;;;;;;8.63;3.40;;;;;;;-0.07;87.78;102671.75;5066319;28;20428;-70
2022/02/27 01:14:38;;;;;;;11.48;3.72;;;;;;;-0.04;88.03;102684.75;5066446;28;20089;-70
2022/02/27 01:17:06;;;;;;;7.65;3.50;;;;;;;-0.02;88.08;102675.50;5066207;28;20031;-70
2022/02/27 01:19:35;;;;;;;7.57;3.50;;;;;;;0.03;88.00;102685.19;5066371;28;20017;-71
2022/02/27 01:22:00;;;;;;;10.48;3.67;;;;;;;0.05;88.29;102687.06;5065897;28;20388;-71
2022/02/27 01:24:26;;;;;;;9.00;2.85;;;;;;;0.10;88.33;102692.50;5048186;28;20317;-70
2022/02/27 01:26:51;;;;;;;19.05;3.40;;;;;;;0.11;88.27;102684.94;5065971;28;20025;-70
2022/02/27 01:29:16;;;;;;;8.68;3.40;;;;;;;0.18;88.41;102690.50;5048174;28;20028;-71
2022/02/27 01:31:42;;;;;;;6.88;3.10;;;;;;;0.20;88.42;102687.28;5066181;28;20138;-70
2022/02/27 01:34:07;;;;;;;5.70;2.97;;;;;;;0.24;88.50;102696.94;5066094;28;20039;-70
2022/02/27 01:36:32;;;;;;;6.97;3.38;;;;;;;0.26;88.60;102696.19;5065524;28;20053;-70
2022/02/27 01:38:58;;;;;;;7.03;2.83;;;;;;;0.33;88.42;102694.16;5065708;28;20084;-70
2022/02/27 01:41:25;;;;;;;7.47;2.92;;;;;;;0.36;88.63;102685.81;5065863;28;20048;-70
2022/02/27 01:43:51;;;;;;;6.35;3.05;;;;;;;0.42;88.58;102693.91;5065749;28;20054;-69
2022/02/27 01:46:17;;;;;;;7.20;3.45;;;;;;;0.45;88.53;102694.13;5065820;28;20184;-69
2022/02/27 01:48:43;;;;;;;11.10;3.30;;;;;;;0.47;88.53;102691.69;5065820;28;20104;-70
2022/02/27 01:51:10;;;;;;;6.97;3.15;;;;;;;0.49;88.45;102693.59;5065591;28;20063;-69
2022/02/27 01:53:35;;;;;;;7.35;2.63;;;;;;;0.51;88.56;102695.34;5065329;28;20182;-69
2022/02/27 01:56:01;;;;;;;7.05;2.97;;;;;;;0.56;88.42;102686.34;5065591;28;20044;-70
2022/02/27 01:58:27;;;;;;;9.48;2.92;;;;;;;0.52;88.10;102681.78;5065366;28;20074;-69
2022/02/27 02:00:56;;;;;;;9.10;4.18;;;;;;;0.53;87.98;102686.13;5065001;28;20037;-70
2022/02/27 02:03:21;;;;;;;9.18;3.50;;;;;;;0.42;88.12;102681.13;5047498;28;20096;-70
2022/02/27 02:05:46;;;;;;;7.57;3.03;;;;;;;0.47;88.30;102692.56;5065373;28;20028;-70
2022/02/27 02:08:12;;;;;;;8.55;2.75;;;;;;;0.47;88.28;102692.56;5065034;28;20036;-70
2022/02/27 02:10:37;;;;;;;5.88;2.92;;;;;;;0.45;88.31;102683.00;5047364;28;20036;-70
2022/02/27 02:13:02;;;;;;;8.65;3.92;;;;;;;0.45;88.18;102683.91;5065323;28;20437;-71
2022/02/27 02:15:28;;;;;;;5.05;2.40;;;;;;;0.43;88.31;102687.13;5065132;28;20025;-69
2022/02/27 02:17:53;;;;;;;4.68;2.47;;;;;;;0.42;88.37;102690.47;5065069;28;20392;-69
2022/02/27 02:20:19;;;;;;;8.93;2.83;;;;;;;0.36;88.30;102690.94;5064912;28;20393;-69
2022/02/27 02:22:44;;;;;;;9.55;3.55;;;;;;;0.36;88.28;102689.28;5064674;28;20017;-69
2022/02/27 02:25:10;;;;;;;6.15;2.95;;;;;;;0.32;88.25;102699.16;5065013;28;20048;-69
2022/02/27 02:27:36;;;;;;;6.72;3.67;;;;;;;0.29;88.34;102696.41;5064756;28;20024;-70
2022/02/27 02:30:03;;;;;;;12.30;3.33;;;;;;;0.22;88.11;102689.94;5065044;28;20021;-69
2022/02/27 02:32:28;;;;;;;7.70;3.20;;;;;;;0.23;88.01;102702.84;5064735;28;20071;-70
2022/02/27 02:34:53;;;;;;;4.65;2.85;;;;;;;0.19;88.16;102700.81;5064989;28;20481;-70
2022/02/27 02:37:19;;;;;;;12.63;3.42;;;;;;;0.17;88.32;102694.72;5064210;28;20041;-70
2022/02/27 02:39:45;;;;;;;8.23;3.13;;;;;;;0.16;88.39;102698.03;5064658;28;20664;-69
2022/02/27 02:42:11;;;;;;;7.95;3.47;;;;;;;0.16;88.41;102694.63;5064671;28;20036;-70
2022/02/27 02:44:38;;;;;;;5.78;3.08;;;;;;;0.16;88.35;102685.28;5064766;28;20029;-70
2022/02/27 02:47:03;;;;;;;6.55;3.58;;;;;;;0.17;88.45;102688.72;5064530;28;20025;-70
2022/02/27 02:49:29;;;;;;;5.72;3.35;;;;;;;0.16;88.50;102685.28;5064568;28;20041;-70
2022/02/27 02:51:54;;;;;;;7.53;3.38;;;;;;;0.19;88.42;102684.63;5064317;28;20092;-71
2022/02/27 02:54:20;;;;;;;8.35;3.55;;;;;;;0.18;88.43;102693.03;5064450;28;20452;-71
2022/02/27 02:56:45;;;;;;;14.63;4.20;;;;;;;0.17;88.25;102687.06;5064362;28;20041;-70
2022/02/27 02:59:12;;;;;;;8.18;4.40;;;;;;;0.15;88.31;102695.38;5064376;28;20024;-71
2022/02/27 03:01:37;;;;;;;5.22;2.60;;;;;;;0.10;88.46;102692.50;5046290;28;20024;-71
2022/02/27 03:04:03;;;;;;;8.68;2.95;;;;;;;0.05;88.32;102679.41;5064239;28;20156;-71
2022/02/27 03:06:30;;;;;;;5.82;2.63;;;;;;;0.10;88.54;102689.94;5064260;28;20076;-70
2022/02/27 03:08:56;;;;;;;7.10;3.35;;;;;;;0.06;88.46;102683.75;5064141;28;20094;-70
2022/02/27 03:11:21;;;;;;;7.40;3.47;;;;;;;0.07;88.42;102690.63;5064207;28;20419;-70
2022/02/27 03:13:48;;;;;;;4.85;2.55;;;;;;;0.05;88.48;102696.41;5063605;28;20040;-70
2022/02/27 03:16:14;;;;;;;6.85;4.03;;;;;;;-0.03;88.67;102678.84;5063959;28;20020;-70
2022/02/27 03:18:40;;;;;;;9.52;3.85;;;;;;;-0.06;88.86;102691.41;5063915;28;20040;-70
2022/02/27 03:21:06;;;;;;;12.80;5.05;;;;;;;-0.01;88.71;102692.63;5063931;28;20111;-70
2022/02/27 03:23:33;;;;;;;7.95;3.97;;;;;;;-0.07;89.07;102683.63;5045592;28;20025;-71
2022/02/27 03:25:59;;;;;;;9.82;4.82;;;;;;;-0.16;89.00;102687.28;5063940;28;20028;-70
2022/02/27 03:28:24;;;;;;;10.07;5.30;;;;;;;-0.26;88.98;102680.63;5063361;28;20045;-71
2022/02/27 03:30:50;;;;;;;11.68;4.78;;;;;;;-0.19;89.01;102687.06;5063753;28;20028;-71
2022/02/27 03:33:16;;;;;;;16.85;3.92;;;;;;;-0.25;89.12;102686.63;5063346;28;20035;-71
2022/02/27 03:35:42;;;;;;;10.88;4.20;;;;;;;-0.20;88.97;102692.97;5063763;28;20032;-70
2022/02/27 03:38:07;;;;;;;9.85;4.53;;;;;;;-0.33;89.39;102683.50;5063445;28;20096;-72
2022/02/27 03:40:33;;;;;;;13.20;5.28;;;;;;;-0.30;89.44;102681.19;5063665;28;20032;-73
2022/02/27 03:42:58;;;;;;;11.05;5.82;;;;;;;-0.24;89.43;102690.06;5063699;28;20090;-72
2022/02/27 03:45:24;;;;;;;19.42;5.85;;;;;;;-0.30;89.43;102683.72;5063647;28;20017;-72
2022/02/27 03:47:49;;;;;;;10.60;6.00;;;;;;;-0.28;89.49;102682.19;5063648;28;20036;-73
2022/02/27 03:50:17;;;;;;;14.20;5.55;;;;;;;-0.30;89.51;102685.38;5063758;28;20532;-73
2022/02/27 03:52:43;;;;;;;11.35;5.30;;;;;;;-0.30;89.59;102687.94;5063204;28;20028;-73
2022/02/27 03:55:12;;;;;;;12.90;5.75;;;;;;;-0.33;89.72;102683.50;5063648;28;20021;-71
2022/02/27 03:57:38;;;;;;;13.73;5.90;;;;;;;-0.34;89.94;102675.75;5063528;28;20025;-71
2022/02/27 04:00:06;;;;;;;14.70;6.75;;;;;;;-0.31;89.94;102686.19;5063518;28;20017;-72
2022/02/27 04:02:31;;;;;;;8.00;4.28;;;;;;;-0.29;89.97;102692.28;5063572;28;20083;-71
2022/02/27 04:04:57;;;;;;;9.65;4.95;;;;;;;-0.33;90.21;102687.72;5063481;28;20025;-71
2022/02/27 04:07:22;;;;;;;14.32;6.38;;;;;;;-0.30;89.87;102681.19;5063199;28;20040;-71
2022/02/27 04:09:47;;;;;;;16.05;5.50;;;;;;;-0.34;89.95;102686.84;5063555;28;20017;-72
2022/02/27 04:12:13;;;;;;;13.45;8.15;;;;;;;-0.36;90.27;102688.38;5063369;28;20021;-72
2022/02/27 04:14:38;;;;;;;22.65;8.40;;;;;;;-0.35;90.36;102677.38;5063410;28;20021;-72
2022/02/27 04:17:03;;;;;;;13.63;5.90;;;;;;;-0.38;90.38;102682.28;5063221;28;20017;-72
2022/02/27 04:19:29;;;;;;;14.82;6.82;;;;;;;-0.32;90.10;102682.72;5063241;28;20029;-73
2022/02/27 04:21:54;;;;;;;15.77;6.80;;;;;;;-0.41;89.76;102671.84;5062963;28;20021;-72
2022/02/27 04:24:20;;;;;;;26.08;8.90;;;;;;;-0.39;90.07;102673.75;5065011;28;20035;-72
2022/02/27 04:26:45;;;;;;;18.48;8.18;;;;;;;-0.39;90.33;102677.94;5067279;28;20023;-71
2022/02/27 04:29:10;;;;;;;19.90;9.10;;;;;;;-0.39;90.62;102688.16;5067164;28;20304;-72
2022/02/27 04:31:36;;;;;;;22.80;10.65;;;;;;;-0.33;90.52;102687.72;5067166;28;20018;-72
2022/02/27 04:34:02;;;;;;;15.25;7.63;;;;;;;-0.36;90.49;102685.84;5067151;28;20029;-72
2022/02/27 04:36:27;;;;;;;22.00;9.88;;;;;;;-0.36;90.36;102690.03;5066736;28;20068;-72
2022/02/27 04:38:53;;;;;;;29.67;10.60;;;;;;;-0.45;90.22;102680.06;5066723;28;20032;-72
2022/02/27 04:41:19;;;;;;;20.70;9.05;;;;;;;-0.40;90.14;102694.91;5067148;28;20032;-73
2022/02/27 04:43:46;;;;;;;28.13;10.73;;;;;;;-0.35;90.14;102694.41;5066924;28;20021;-73
2022/02/27 04:46:11;;;;;;;22.20;10.43;;;;;;;-0.40;90.42;102681.28;5066947;28;20051;-72
2022/02/27 04:48:36;;;;;;;19.17;10.07;;;;;;;-0.40;90.42;102676.19;5048741;28;20052;-72
2022/02/27 04:51:02;;;;;;;22.45;9.35;;;;;;;-0.41;90.36;102682.06;5066705;28;20025;-73
2022/02/27 04:53:27;;;;;;;23.83;9.55;;;;;;;-0.40;90.66;102678.75;5066544;28;20017;-73
2022/02/27 04:55:53;;;;;;;25.23;10.73;;;;;;;-0.41;90.64;102672.75;5066761;28;20112;-73
2022/02/27 04:58:18;;;;;;;28.75;11.65;;;;;;;-0.43;90.77;102665.75;5048876;28;20021;-73
2022/02/27 05:00:43;;;;;;;35.28;9.95;;;;;;;-0.40;90.89;102676.19;5066536;28;20068;-74
2022/02/27 05:03:09;;;;;;;28.25;11.20;;;;;;;-0.39;90.97;102667.75;5066472;28;20017;-74
2022/02/27 05:05:34;;;;;;;23.23;8.43;;;;;;;-0.33;90.90;102667.28;5066561;28;20157;-74
2022/02/27 05:07:59;;;;;;;25.15;12.40;;;;;;;-0.29;90.85;102662.53;5066064;28;20022;-73
2022/02/27 05:10:25;;;;;;;26.50;8.95;;;;;;;-0.31;90.97;102664.09;5066540;28;20418;-72
2022/02/27 05:12:50;;;;;;;31.60;12.48;;;;;;;-0.31;91.07;102661.53;5066333;28;20029;-72
2022/02/27 05:15:16;;;;;;;27.15;13.50;;;;;;;-0.28;91.11;102671.97;5066299;28;20028;-72
2022/02/27 05:17:41;;;;;;;23.98;11.80;;;;;;;-0.30;91.17;102660.75;5066032;28;20029;-73
2022/02/27 05:20:08;;;;;;;29.48;11.68;;;;;;;-0.31;91.25;102661.53;5066132;28;20057;-73
2022/02/27 05:22:33;;;;;;;28.17;11.50;;;;;;;-0.23;91.16;102663.75;5065914;28;20020;-73
2022/02/27 05:24:59;;;;;;;24.55;9.52;;;;;;;-0.23;90.99;102657.00;5066230;28;20036;-72
2022/02/27 05:27:24;;;;;;;36.78;12.77;;;;;;;-0.20;91.19;102658.88;5047956;28;20075;-72
2022/02/27 05:29:50;;;;;;;27.60;12.45;;;;;;;-0.10;90.98;102668.09;5065886;28;20099;-72
2022/02/27 05:32:15;;;;;;;29.33;11.50;;;;;;;-0.18;91.18;102662.44;5065755;28;20025;-72
2022/02/27 05:34:40;;;;;;;26.05;10.75;;;;;;;-0.20;91.38;102659.78;5065993;28;20025;-72
2022/02/27 05:37:06;;;;;;;20.27;8.43;;;;;;;-0.14;91.41;102667.88;5046592;28;20045;-72
2022/02/27 05:39:32;;;;;;;19.88;8.25;;;;;;;-0.08;91.47;102672.50;5065874;28;20044;-72
2022/02/27 05:41:57;;;;;;;19.13;9.13;;;;;;;-0.04;91.50;102678.75;5065970;28;20021;-73
2022/02/27 05:44:23;;;;;;;30.55;11.93;;;;;;;-0.02;91.48;102683.16;5065711;28;20456;-72
2022/02/27 05:46:49;;;;;;;32.53;10.55;;;;;;;0.01;91.24;102689.28;5065725;28;20021;-71
2022/02/27 05:49:15;;;;;;;38.80;12.98;;;;;;;-0.02;91.33;102684.84;5065637;28;20025;-72
2022/02/27 05:51:41;;;;;;;22.83;9.43;;;;;;;0.02;91.29;102701.31;5065490;28;20028;-72
2022/02/27 05:54:06;;;;;;;29.05;12.43;;;;;;;-0.02;91.21;102698.50;5065278;28;20074;-72
2022/02/27 05:56:31;;;;;;;37.95;11.73;;;;;;;-0.03;91.21;102700.94;5047536;28;20047;-72
2022/02/27 05:58:57;;;;;;;26.00;10.73;;;;;;;0.02;91.07;102696.19;5065243;28;20028;-72
2022/02/27 06:01:22;;;;;;;31.02;11.43;;;;;;;-0.05;91.11;102692.31;5065424;28;20032;-73
2022/02/27 06:03:47;;;;;;;41.03;15.48;;;;;;;-0.04;91.43;102701.72;5065246;28;20032;-73
2022/02/27 06:06:13;;;;;;;29.77;12.90;;;;;;;-0.03;91.53;102704.41;5065467;28;20040;-72
2022/02/27 06:08:38;;;;;;;37.60;13.45;;;;;;;-0.04;91.53;102687.31;5065070;28;20031;-73
2022/02/27 06:11:04;;;;;;;38.05;12.38;;;;;;;-0.01;91.69;102692.63;5065332;28;20013;-73
2022/02/27 06:13:29;;;;;;;29.20;11.68;;;;;;;0.08;91.54;102694.09;5065496;28;20025;-72
2022/02/27 06:15:55;;;;;;;32.28;11.85;;;;;;;0.11;91.54;102699.41;5065265;28;20025;-73
2022/02/27 06:18:20;;;;;;;34.35;10.90;;;;;;;0.15;91.33;102700.50;5065078;28;20028;-72
2022/02/27 06:20:45;;;;;;;31.25;10.82;;;;;;;0.13;91.29;102702.94;5065113;28;20032;-73
2022/02/27 06:23:11;;;;;;;47.47;17.58;;;;;;;0.06;91.28;102698.19;5064827;28;20082;-73
2022/02/27 06:25:37;;;;;;;41.50;15.77;;;;;;;0.05;91.38;102702.38;5065182;28;20109;-73
2022/02/27 06:28:04;;;;;;;29.92;11.23;;;;;;;0.03;91.55;102703.06;5064937;28;20053;-73
2022/02/27 06:30:30;;;;;;;38.20;14.95;;;;;;;0.07;91.55;102705.06;5064973;28;20032;-73
2022/02/27 06:32:56;;;;;;;33.70;12.85;;;;;;;0.02;91.61;102691.09;5064923;28;20033;-73
2022/02/27 06:35:23;;;;;;;48.25;14.98;;;;;;;0.09;91.63;102691.63;5065066;28;20147;-72
2022/02/27 06:37:50;;;;;;;35.47;13.93;;;;;;;0.10;91.75;102703.63;5064642;28;20047;-71
2022/02/27 06:40:18;;;;;;;45.85;17.55;;;;;;;0.12;91.90;102703.72;5064742;28;20025;-72
2022/02/27 06:42:43;;;;;;;29.52;13.32;;;;;;;0.11;91.47;102697.72;5064797;28;20500;-71
2022/02/27 06:45:10;;;;;;;38.10;13.23;;;;;;;0.16;91.26;102708.25;5064700;28;20071;-72
2022/02/27 06:47:36;;;;;;;34.50;12.85;;;;;;;0.14;91.45;102716.59;5063575;28;20028;-72
2022/02/27 06:50:01;;;;;;;40.85;16.27;;;;;;;0.12;91.84;102708.84;5064578;28;20021;-72
2022/02/27 06:52:26;;;;;;;39.58;13.15;;;;;;;0.20;91.75;102711.94;5064119;28;20024;-72
2022/02/27 06:54:52;;;;;;;36.05;13.73;;;;;;;0.26;91.98;102704.72;5046462;28;20028;-73
2022/02/27 06:57:17;;;;;;;41.78;16.60;;;;;;;0.27;91.88;102700.50;5064420;28;20025;-72
2022/02/27 06:59:43;;;;;;;33.42;14.05;;;;;;;0.47;92.45;102715.59;5064374;28;20032;-72
2022/02/27 07:02:08;;;;;;;28.92;11.88;;;;;;;0.70;92.40;102720.53;5064160;28;20056;-72
2022/02/27 07:04:34;;;;;;;27.35;11.23;;;;;;;0.95;92.74;102712.88;5064309;28;20029;-72
2022/02/27 07:06:59;;;;;;;18.55;9.32;;;;;;;1.31;92.39;102722.94;5063902;28;20048;-72
2022/02/27 07:09:25;;;;;;;22.70;9.75;;;;;;;1.42;92.24;102715.97;5063819;28;20013;-71
2022/02/27 07:11:50;;;;;;;16.80;7.15;;;;;;;1.50;92.01;102718.19;5045506;28;20070;-72
2022/02/27 07:14:15;;;;;;;24.35;11.52;;;;;;;1.52;91.50;102724.31;5063402;28;20515;-71
2022/02/27 07:16:41;;;;;;;23.13;9.95;;;;;;;1.40;90.70;102730.38;5063403;28;20037;-72
2022/02/27 07:19:06;;;;;;;74.88;12.93;;;;;;;1.24;89.93;102736.13;5063413;28;20025;-73
2022/02/27 07:21:31;;;;;;;48.55;11.93;;;;;;;0.97;89.77;102725.78;5063361;28;20376;-74
2022/02/27 07:23:57;;;;;;;103.78;17.55;;;;;;;0.94;90.20;102744.34;5062903;28;20021;-75
2022/02/27 07:26:23;;;;;;;59.13;13.15;;;;;;;0.91;90.58;102736.47;5063352;28;20024;-75
2022/02/27 07:28:48;;;;;;;38.20;13.55;;;;;;;0.98;91.10;102733.56;5063182;28;20028;-74
2022/02/27 07:31:14;;;;;;;47.95;12.23;;;;;;;1.22;91.47;102738.59;5063214;28;20020;-74
2022/02/27 07:33:39;;;;;;;23.02;10.50;;;;;;;1.51;91.72;102731.09;5063120;28;20082;-73
2022/02/27 07:36:04;;;;;;;14.50;7.43;;;;;;;1.90;92.40;102745.53;5063295;28;20049;-71
2022/02/27 07:38:30;;;;;;;18.52;7.95;;;;;;;2.27;92.46;102752.16;5062661;28;20045;-71
2022/02/27 07:40:55;;;;;;;12.73;7.07;;;;;;;2.62;92.73;102760.31;5063013;28;20025;-69
2022/02/27 07:43:21;;;;;;;14.57;8.45;;;;;;;3.04;93.64;102750.00;5062986;28;20033;-69
2022/02/27 07:45:46;;;;;;;16.90;7.10;;;;;;;3.56;94.11;102751.38;5044959;28;20104;-69
2022/02/27 07:48:13;;;;;;;10.40;5.88;;;;;;;3.96;94.52;102752.78;5062834;28;20017;-70
2022/02/27 07:50:39;;;;;;;16.58;4.97;;;;;;;4.36;93.72;102748.97;5063042;28;20045;-70
2022/02/27 07:53:04;;;;;;;10.68;5.75;;;;;;;4.56;93.21;102744.94;5062801;28;20032;-71
2022/02/27 07:55:30;;;;;;;11.93;4.53;;;;;;;4.98;93.70;102751.44;5062879;28;20050;-71
2022/02/27 07:57:55;;;;;;;11.70;4.97;;;;;;;5.36;94.87;102753.31;5062875;28;20469;-71
2022/02/27 08:00:20;;;;;;;12.60;4.38;;;;;;;5.88;94.51;102755.06;5067054;28;20021;-70
2022/02/27 08:02:46;;;;;;;13.77;4.15;;;;;;;6.21;94.48;102751.50;5067941;28;20021;-69
2022/02/27 08:05:11;;;;;;;7.63;3.50;;;;;;;6.66;95.01;102756.16;5067533;28;20056;-69
2022/02/27 08:07:36;;;;;;;9.40;3.75;;;;;;;7.00;94.22;102756.78;5067309;28;20055;-69
2022/02/27 08:10:02;;;;;;;9.70;4.07;;;;;;;7.16;93.61;102752.28;5067530;28;20076;-69
2022/02/27 08:12:28;;;;;;;7.78;4.93;;;;;;;7.39;93.99;102752.41;5067548;28;20017;-69
2022/02/27 08:14:53;;;;;;;12.52;4.70;;;;;;;7.77;92.53;102757.44;5067394;28;20110;-70
2022/02/27 08:17:19;;;;;;;9.25;3.92;;;;;;;8.16;91.90;102746.91;5067355;28;20021;-70
2022/02/27 08:19:45;;;;;;;7.57;4.70;;;;;;;8.71;89.64;102742.94;5067258;28;20021;-70
2022/02/27 08:22:11;;;;;;;10.32;3.83;;;;;;;9.14;86.51;102749.69;5067085;28;20645;-69
2022/02/27 08:24:36;;;;;;;6.47;3.05;;;;;;;9.48;83.70;102741.31;5067435;28;20017;-69
2022/02/27 08:27:02;;;;;;;9.35;3.53;;;;;;;9.73;82.05;102749.94;5067312;28;20025;-69
2022/02/27 08:29:27;;;;;;;9.63;3.13;;;;;;;9.85;80.57;102745.16;5067176;28;20021;-69
2022/02/27 08:31:52;;;;;;;10.18;3.55;;;;;;;9.77;76.26;102746.59;5049377;28;20028;-68
2022/02/27 08:34:18;;;;;;;7.68;3.78;;;;;;;9.53;77.75;102748.44;5066989;28;20017;-68
2022/02/27 08:36:43;;;;;;;9.73;2.65;;;;;;;9.76;77.71;102755.22;5066729;28;20377;-66
2022/02/27 08:39:09;;;;;;;9.23;3.20;;;;;;;10.09;75.19;102764.94;5066346;28;20087;-67
2022/02/27 08:41:37;;;;;;;6.57;2.70;;;;;;;10.34;74.76;102755.28;5066812;28;20051;-66
2022/02/27 08:44:03;;;;;;;11.55;3.05;;;;;;;10.56;72.08;102760.31;5066671;28;20017;-67
2022/02/27 08:46:29;;;;;;;11.02;3.60;;;;;;;10.63;70.97;102755.31;5066821;28;20389;-68
2022/02/27 08:48:54;;;;;;;11.00;3.17;;;;;;;10.90;70.76;102764.75;5066756;28;20379;-68
2022/02/27 08:51:19;;;;;;;6.80;2.83;;;;;;;11.26;67.14;102760.50;5066776;28;20051;-68
2022/02/27 08:53:45;;;;;;;7.90;3.00;;;;;;;11.21;66.04;102737.84;5066380;28;20420;-69
2022/02/27 08:56:10;;;;;;;5.13;2.65;;;;;;;11.43;64.73;102767.00;5066700;28;20635;-68
2022/02/27 08:58:35;;;;;;;9.15;2.80;;;;;;;11.39;64.21;102764.31;5066485;28;20047;-69
2022/02/27 09:01:01;;;;;;;6.00;2.30;;;;;;;11.52;64.03;102767.22;5066341;28;20032;-68
2022/02/27 09:03:27;;;;;;;8.05;2.33;;;;;;;11.53;65.24;102763.81;5048522;28;20024;-69
2022/02/27 09:05:54;;;;;;;9.65;2.65;;;;;;;11.59;65.04;102760.47;5066603;28;20025;-69
2022/02/27 09:08:20;;;;;;;5.80;2.22;;;;;;;11.44;64.76;102769.63;5048061;28;20029;-69
2022/02/27 09:10:46;;;;;;;9.52;3.08;;;;;;;11.40;64.43;102753.09;5065335;28;20021;-69
2022/02/27 09:13:12;;;;;;;8.63;2.20;;;;;;;11.45;64.38;102760.13;5066189;28;20035;-68
2022/02/27 09:15:37;;;;;;;7.63;3.10;;;;;;;11.64;62.77;102751.06;5048103;28;20464;-68
2022/02/27 09:18:02;;;;;;;7.28;1.80;;;;;;;11.50;65.32;102755.94;5065991;28;20051;-67
2022/02/27 09:20:28;;;;;;;7.75;1.90;;;;;;;11.45;64.14;102761.00;5066027;28;20147;-68
2022/02/27 09:22:54;;;;;;;4.50;1.80;;;;;;;11.45;64.70;102757.53;5065796;28;20028;-68
2022/02/27 09:25:19;;;;;;;8.07;1.70;;;;;;;11.44;66.50;102755.78;5066020;28;20416;-68
2022/02/27 09:27:45;;;;;;;5.30;1.73;;;;;;;11.47;63.88;102758.44;5064393;28;20390;-67
2022/02/27 09:30:12;;;;;;;4.55;1.63;;;;;;;11.31;65.71;102747.63;5066029;28;20062;-68
2022/02/27 09:32:41;;;;;;;5.13;1.63;;;;;;;11.05;61.76;102754.72;5066158;28;20021;-67
2022/02/27 09:35:07;;;;;;;5.10;1.63;;;;;;;10.86;62.58;102765.47;5065894;28;20020;-67
2022/02/27 09:37:34;;;;;;;4.53;1.23;;;;;;;10.69;63.63;102762.41;5065196;28;20041;-68
2022/02/27 09:39:59;;;;;;;9.38;1.33;;;;;;;10.54;64.09;102763.72;5065494;28;20021;-68
2022/02/27 09:42:29;;;;;;;2.67;1.40;;;;;;;10.50;65.60;102766.19;5065702;28;20028;-68
2022/02/27 09:44:55;;;;;;;3.67;1.20;;;;;;;10.62;66.98;102758.75;5065902;28;20017;-68
2022/02/27 09:47:21;;;;;;;3.47;1.10;;;;;;;10.72;67.48;102752.09;5065396;28;20029;-69
2022/02/27 09:49:46;;;;;;;4.32;0.85;;;;;;;10.48;63.34;102752.28;5065546;28;20246;-68
2022/02/27 09:52:14;;;;;;;6.00;1.10;;;;;;;10.34;61.98;102760.50;5065409;28;20499;-69
2022/02/27 09:54:40;;;;;;;2.55;1.02;;;;;;;10.07;59.67;102766.59;5065602;28;20025;-69
2022/02/27 09:57:05;;;;;;;2.47;1.05;;;;;;;9.86;61.08;102762.47;5065737;28;20075;-69
2022/02/27 09:59:31;;;;;;;4.47;1.45;;;;;;;9.67;59.53;102774.84;5065406;28;20029;-69
2022/02/27 10:02:04;;;;;;;4.22;1.33;;;;;;;9.39;61.05;102773.88;5065308;28;20119;-69
2022/02/27 10:04:34;;;;;;;4.93;1.45;;;;;;;9.39;65.16;102778.19;5065645;28;20021;-68
2022/02/27 10:06:59;;;;;;;4.07;1.20;;;;;;;9.29;67.41;102758.84;5064997;28;20078;-68
2022/02/27 10:09:25;;;;;;;3.75;1.15;;;;;;;9.48;64.13;102773.31;5065017;28;20021;-68
2022/02/27 10:11:52;;;;;;;4.32;1.13;;;;;;;9.44;64.92;102765.41;5065091;28;20029;-67
2022/02/27 10:14:27;;;;;;;3.50;1.30;;;;;;;9.67;63.62;102767.06;5065138;28;20032;-67
2022/02/27 10:17:04;;;;;;;4.47;1.50;;;;;;;10.13;62.61;102771.06;5065100;28;20028;-67
2022/02/27 10:19:30;;;;;;;2.90;1.50;;;;;;;10.58;62.30;102775.09;5064911;28;20024;-67
2022/02/27 10:21:55;;;;;;;3.47;1.10;;;;;;;11.09;60.03;102773.06;5065020;28;20021;-67
2022/02/27 10:24:20;;;;;;;5.03;1.40;;;;;;;11.38;57.68;102778.16;5064747;28;20087;-67
2022/02/27 10:26:48;;;;;;;9.07;1.52;;;;;;;11.43;60.03;102767.00;5064913;28;20020;-68
2022/02/27 10:29:20;;;;;;;5.15;1.63;;;;;;;11.77;60.10;102775.69;5064849;28;20029;-69
2022/02/27 10:31:48;;;;;;;3.08;1.40;;;;;;;12.08;56.21;102775.53;5065018;28;20092;-69
2022/02/27 10:34:15;;;;;;;4.05;1.20;;;;;;;11.84;53.56;102774.97;5064862;28;20029;-67
2022/02/27 10:37:05;;;;;;;3.95;1.73;;;;;;;11.19;55.41;102775.91;5064524;28;20052;-68
2022/02/27 10:39:33;;;;;;;4.82;1.70;;;;;;;10.31;55.64;102786.34;5064548;28;20032;-70
2022/02/27 10:42:19;;;;;;;4.28;1.70;;;;;;;9.82;57.36;102785.66;5064552;28;20035;-68
2022/02/27 10:44:51;;;;;;;1.30;0.80;;;;;;;9.47;56.03;102789.72;5064649;28;20021;-68
2022/02/27 10:47:18;;;;;;;3.88;1.40;;;;;;;9.24;57.16;102787.19;5046707;28;20045;-68
2022/02/27 10:49:46;;;;;;;4.30;1.30;;;;;;;9.16;55.74;102793.81;5064445;28;20047;-68
2022/02/27 10:52:13;;;;;;;2.70;1.40;;;;;;;9.08;55.34;102790.94;5046230;28;20119;-68
2022/02/27 10:54:40;;;;;;;3.13;1.30;;;;;;;9.16;54.81;102799.88;5064408;28;20032;-69
2022/02/27 10:57:10;;;;;;;3.83;1.35;;;;;;;9.25;54.99;102798.44;5064533;28;20025;-69
2022/02/27 10:59:38;;;;;;;2.15;1.17;;;;;;;9.51;54.75;102780.31;5064379;28;20519;-70
2022/02/27 11:02:05;;;;;;;7.03;1.40;;;;;;;9.74;55.66;102788.91;5064433;28;20089;-69
2022/02/27 11:04:32;;;;;;;4.40;1.48;;;;;;;10.25;56.92;102786.16;5064261;28;20028;-69
2022/02/27 11:06:57;;;;;;;4.63;1.58;;;;;;;10.70;55.02;102791.88;5064181;28;20423;-69
2022/02/27 11:09:23;;;;;;;4.60;1.77;;;;;;;10.82;53.04;102805.22;5045881;28;20016;-69
2022/02/27 11:11:49;;;;;;;4.25;1.50;;;;;;;10.95;52.59;102805.56;5064397;28;20036;-68
2022/02/27 11:14:15;;;;;;;4.95;1.15;;;;;;;11.09;52.40;102796.44;5064107;28;20092;-69
2022/02/27 11:16:41;;;;;;;3.20;1.30;;;;;;;11.06;50.83;102795.47;5064178;28;20017;-69
2022/02/27 11:19:06;;;;;;;6.40;1.48;;;;;;;11.22;52.21;102800.28;5045843;28;20536;-68